createdAt,value
2023-05-21T00:02:19.858Z,11.25
2023-05-21T00:04:47.508Z,11.29
2023-05-21T00:07:15.226Z,11.27
2023-05-21T00:09:41.873Z,11.33
2023-05-21T00:12:09.047Z,11.33
2023-05-21T00:14:35.754Z,11.35
2023-05-21T00:17:02.234Z,11.37
2023-05-21T00:19:28.817Z,11.41
2023-05-21T00:21:55.988Z,11.32
2023-05-21T00:24:22.517Z,11.34
2023-05-21T00:26:48.942Z,11.30
2023-05-21T00:29:15.680Z,11.36
2023-05-21T00:31:42.200Z,11.27
2023-05-21T00:34:08.681Z,11.22
2023-05-21T00:36:35.556Z,11.19
2023-05-21T00:39:02.564Z,11.20
2023-05-21T00:41:30.215Z,11.14
2023-05-21T00:43:57.234Z,11.09
2023-05-21T00:46:24.150Z,11.15
2023-05-21T00:48:52.007Z,11.07
2023-05-21T00:51:21.621Z,11.03
2023-05-21T00:53:52.544Z,11.03
2023-05-21T00:56:22.688Z,10.93
2023-05-21T00:58:51.852Z,10.89
2023-05-21T01:01:19.362Z,10.91
2023-05-21T01:03:48.702Z,10.95
2023-05-21T01:06:15.998Z,10.96
2023-05-21T01:08:42.557Z,10.84
2023-05-21T01:11:10.626Z,11.06
2023-05-21T01:13:39.934Z,10.99
2023-05-21T01:16:08.630Z,10.97
2023-05-21T01:18:43.133Z,10.86
2023-05-21T01:21:11.491Z,10.99
2023-05-21T01:23:38.163Z,10.95
2023-05-21T01:26:04.643Z,10.97
2023-05-21T01:28:32.952Z,10.91
2023-05-21T01:31:12.224Z,10.93
2023-05-21T01:33:49.072Z,10.93
2023-05-21T01:36:24.086Z,10.89
2023-05-21T01:39:02.100Z,10.89
2023-05-21T01:41:33.402Z,10.92
2023-05-21T01:44:01.117Z,10.89
2023-05-21T01:46:30.730Z,10.94
2023-05-21T01:48:57.646Z,10.91
2023-05-21T01:51:24.697Z,10.97
2023-05-21T01:53:51.384Z,10.81
2023-05-21T01:56:17.882Z,10.90
2023-05-21T01:58:44.448Z,10.81
2023-05-21T02:01:11.981Z,10.80
2023-05-21T02:03:38.730Z,10.83
2023-05-21T02:06:05.424Z,10.82
2023-05-21T02:08:31.898Z,10.74
2023-05-21T02:10:58.336Z,10.74
2023-05-21T02:13:26.239Z,10.74
2023-05-21T02:15:54.800Z,10.77
2023-05-21T02:18:22.081Z,10.74
2023-05-21T02:20:48.562Z,10.62
2023-05-21T02:23:15.138Z,10.62
2023-05-21T02:25:41.580Z,10.58
2023-05-21T02:28:08.142Z,10.65
2023-05-21T02:30:35.214Z,10.54
2023-05-21T02:33:02.947Z,10.61
2023-05-21T02:35:29.562Z,10.63
2023-05-21T02:37:59.095Z,10.64
2023-05-21T02:40:25.588Z,10.63
2023-05-21T02:42:52.046Z,10.64
2023-05-21T02:45:18.547Z,10.68
2023-05-21T02:47:45.083Z,10.77
2023-05-21T02:50:13.564Z,10.86
2023-05-21T02:52:40.085Z,10.96
2023-05-21T02:55:07.102Z,10.93
2023-05-21T02:57:33.668Z,10.86
2023-05-21T03:00:00.090Z,10.84
2023-05-21T03:02:26.609Z,10.85
2023-05-21T03:04:53.199Z,10.97
2023-05-21T03:07:19.772Z,10.95
2023-05-21T03:09:46.564Z,10.95
2023-05-21T03:12:13.123Z,10.90
2023-05-21T03:14:39.584Z,10.97
2023-05-21T03:17:06.433Z,11.00
2023-05-21T03:19:35.769Z,11.00
2023-05-21T03:22:03.677Z,11.01
2023-05-21T03:24:30.812Z,11.04
2023-05-21T03:26:57.556Z,10.96
2023-05-21T03:29:24.060Z,10.87
2023-05-21T03:31:52.883Z,11.00
2023-05-21T03:34:20.117Z,11.03
2023-05-21T03:36:47.890Z,10.98
2023-05-21T03:39:14.556Z,11.06
2023-05-21T03:41:41.217Z,11.15
2023-05-21T03:44:07.789Z,11.20
2023-05-21T03:46:34.400Z,11.25
2023-05-21T03:49:00.959Z,11.21
2023-05-21T03:51:27.707Z,11.22
2023-05-21T03:53:54.202Z,11.21
2023-05-21T03:56:21.562Z,11.20
2023-05-21T03:58:48.070Z,11.18
2023-05-21T04:01:14.597Z,11.27
2023-05-21T04:03:41.324Z,11.22
2023-05-21T04:06:10.109Z,11.36
2023-05-21T04:08:37.965Z,11.29
2023-05-21T04:11:04.620Z,11.32
2023-05-21T04:13:31.058Z,11.35
2023-05-21T04:15:57.562Z,11.49
2023-05-21T04:18:25.890Z,11.41
2023-05-21T04:20:52.689Z,11.39
2023-05-21T04:23:19.153Z,11.48
2023-05-21T04:25:45.621Z,11.53
2023-05-21T04:28:12.065Z,11.57
2023-05-21T04:30:38.485Z,11.53
2023-05-21T04:33:05.025Z,11.54
2023-05-21T04:35:31.513Z,11.59
2023-05-21T04:37:57.962Z,11.60
2023-05-21T04:40:24.471Z,11.63
2023-05-21T04:42:51.436Z,11.56
2023-05-21T04:45:18.018Z,11.71
2023-05-21T04:47:44.531Z,11.73
2023-05-21T04:50:10.996Z,11.73
2023-05-21T04:52:40.219Z,11.69
2023-05-21T04:55:09.967Z,11.82
2023-05-21T04:57:36.986Z,11.98
2023-05-21T05:00:06.410Z,12.10
2023-05-21T05:02:32.897Z,12.11
2023-05-21T05:04:59.865Z,12.04
2023-05-21T05:07:26.680Z,12.15
2023-05-21T05:09:53.096Z,12.22
2023-05-21T05:12:19.605Z,12.34
2023-05-21T05:14:46.217Z,12.37
2023-05-21T05:17:15.447Z,12.43
2023-05-21T05:19:42.057Z,12.58
2023-05-21T05:22:08.501Z,12.73
2023-05-21T05:24:35.000Z,12.82
2023-05-21T05:27:01.526Z,12.77
2023-05-21T05:29:27.989Z,12.65
2023-05-21T05:31:54.396Z,12.66
2023-05-21T05:34:21.531Z,12.50
2023-05-21T05:36:48.037Z,12.67
2023-05-21T05:39:14.520Z,13.02
2023-05-21T05:41:41.070Z,13.49
2023-05-21T05:44:08.956Z,13.69
2023-05-21T05:46:37.353Z,13.59
2023-05-21T05:49:03.884Z,13.71
2023-05-21T05:51:30.650Z,13.66
2023-05-21T05:53:57.163Z,13.68
2023-05-21T05:56:23.731Z,13.61
2023-05-21T05:58:50.218Z,13.46
2023-05-21T06:01:17.857Z,13.65
2023-05-21T06:03:44.622Z,13.77
2023-05-21T06:06:11.945Z,13.76
2023-05-21T06:08:40.488Z,13.83
2023-05-21T06:11:07.080Z,13.95
2023-05-21T06:13:33.731Z,14.04
2023-05-21T06:16:00.194Z,14.06
2023-05-21T06:18:26.774Z,14.16
2023-05-21T06:20:53.215Z,14.28
2023-05-21T06:23:19.666Z,14.28
2023-05-21T06:25:46.130Z,14.44
2023-05-21T06:28:12.687Z,14.48
2023-05-21T06:30:39.150Z,14.62
2023-05-21T06:33:05.758Z,14.86
2023-05-21T06:35:34.762Z,15.09
2023-05-21T06:38:01.280Z,15.00
2023-05-21T06:40:27.996Z,15.09
2023-05-21T06:42:56.088Z,15.20
2023-05-21T06:45:23.258Z,15.42
2023-05-21T06:47:49.714Z,15.09
2023-05-21T06:50:16.572Z,15.55
2023-05-21T06:52:43.110Z,15.77
2023-05-21T06:55:09.685Z,16.03
2023-05-21T06:57:37.963Z,16.13
2023-05-21T07:00:05.670Z,15.91
2023-05-21T07:02:32.260Z,15.86
2023-05-21T07:04:58.934Z,15.88
2023-05-21T07:07:25.751Z,15.87
2023-05-21T07:09:52.208Z,16.01
2023-05-21T07:12:18.631Z,16.04
2023-05-21T07:14:45.052Z,15.79
2023-05-21T07:17:11.548Z,15.87
2023-05-21T07:19:38.244Z,16.06
2023-05-21T07:22:05.925Z,16.20
2023-05-21T07:24:32.342Z,16.24
2023-05-21T07:26:58.844Z,16.36
2023-05-21T07:29:25.280Z,16.55
2023-05-21T07:31:51.705Z,16.33
2023-05-21T07:34:18.123Z,16.28
2023-05-21T07:36:44.577Z,16.26
2023-05-21T07:39:11.487Z,16.21
2023-05-21T07:41:37.894Z,16.11
2023-05-21T07:44:04.564Z,16.42
2023-05-21T07:46:31.051Z,16.54
2023-05-21T07:48:57.515Z,16.53
2023-05-21T07:51:24.401Z,16.84
2023-05-21T07:53:51.140Z,16.89
2023-05-21T07:56:18.322Z,17.26
2023-05-21T07:58:45.761Z,17.32
2023-05-21T08:01:12.532Z,17.59
2023-05-21T08:03:39.270Z,17.48
2023-05-21T08:06:05.934Z,17.31
2023-05-21T08:08:32.643Z,17.45
2023-05-21T08:10:59.121Z,17.74
2023-05-21T08:13:25.873Z,17.88
2023-05-21T08:15:53.399Z,18.33
2023-05-21T08:18:20.228Z,19.05
2023-05-21T08:20:46.674Z,19.92
2023-05-21T08:23:13.136Z,19.19
2023-05-21T08:25:39.741Z,19.30
2023-05-21T08:28:07.150Z,19.44
2023-05-21T08:30:33.936Z,19.70
2023-05-21T08:33:01.156Z,19.70
2023-05-21T08:35:27.615Z,19.66
2023-05-21T08:37:54.053Z,19.20
2023-05-21T08:40:20.704Z,19.06
2023-05-21T08:42:49.109Z,19.06
2023-05-21T08:45:21.634Z,19.02
2023-05-21T08:47:52.033Z,19.07
2023-05-21T08:50:19.457Z,18.91
2023-05-21T08:52:45.976Z,19.16
2023-05-21T08:55:12.832Z,19.06
2023-05-21T08:57:43.690Z,19.28
2023-05-21T09:00:11.783Z,19.47
2023-05-21T09:02:43.672Z,19.44
2023-05-21T09:05:10.343Z,19.43
2023-05-21T09:07:46.525Z,19.35
2023-05-21T09:10:14.069Z,19.23
2023-05-21T09:12:40.551Z,19.46
2023-05-21T09:15:07.775Z,19.40
2023-05-21T09:17:34.462Z,19.50
2023-05-21T09:20:13.617Z,19.73
2023-05-21T09:22:42.565Z,19.55
2023-05-21T09:25:29.955Z,19.60
2023-05-21T09:27:56.986Z,19.33
2023-05-21T09:30:34.934Z,19.38
2023-05-21T09:33:03.406Z,19.42
2023-05-21T09:35:30.086Z,19.67
2023-05-21T09:37:57.649Z,19.49
2023-05-21T09:40:24.883Z,19.60
2023-05-21T09:42:53.146Z,19.59
2023-05-21T09:45:26.446Z,19.44
2023-05-21T09:47:54.936Z,19.56
2023-05-21T09:50:28.277Z,18.93
2023-05-21T09:52:55.559Z,18.72
2023-05-21T09:55:23.906Z,18.63
2023-05-21T09:57:51.054Z,18.95
2023-05-21T10:00:27.458Z,19.35
2023-05-21T10:02:56.065Z,19.63
2023-05-21T10:05:27.435Z,19.83
2023-05-21T10:07:59.993Z,20.32
2023-05-21T10:10:28.585Z,20.93
2023-05-21T10:13:04.148Z,21.05
2023-05-21T10:15:35.048Z,21.74
2023-05-21T10:18:02.426Z,22.32
2023-05-21T10:20:29.411Z,21.98
2023-05-21T10:22:56.801Z,22.60
2023-05-21T10:25:24.402Z,22.19
2023-05-21T10:27:51.729Z,21.73
2023-05-21T10:30:18.404Z,21.93
2023-05-21T10:32:47.736Z,22.09
2023-05-21T10:35:16.286Z,21.73
2023-05-21T10:37:46.335Z,21.34
2023-05-21T10:40:13.595Z,21.46
2023-05-21T10:43:13.383Z,21.37
2023-05-21T10:45:55.051Z,21.74
2023-05-21T10:48:58.480Z,21.99
2023-05-21T10:51:36.453Z,21.91
2023-05-21T10:54:21.062Z,22.21
2023-05-21T10:56:50.428Z,22.28
2023-05-21T10:59:25.790Z,22.06
2023-05-21T11:01:53.210Z,21.92
2023-05-21T11:04:23.830Z,21.97
2023-05-21T11:06:50.247Z,22.26
2023-05-21T11:09:17.236Z,22.47
2023-05-21T11:11:51.210Z,23.25
2023-05-21T11:14:38.949Z,22.81
2023-05-21T11:17:08.174Z,23.17
2023-05-21T11:19:38.470Z,23.09
2023-05-21T11:22:07.191Z,22.85
2023-05-21T11:24:37.355Z,23.06
2023-05-21T11:27:05.650Z,23.54
2023-05-21T11:29:44.264Z,23.93
2023-05-21T11:32:12.566Z,24.01
2023-05-21T11:34:46.398Z,23.78
2023-05-21T11:37:20.627Z,24.52
2023-05-21T11:39:48.179Z,24.98
2023-05-21T11:42:39.500Z,24.75
2023-05-21T11:45:06.399Z,24.95
2023-05-21T11:47:33.029Z,24.71
2023-05-21T11:50:01.205Z,24.60
2023-05-21T11:52:31.696Z,24.88
2023-05-21T11:54:59.697Z,24.86
2023-05-21T11:57:31.137Z,24.86
2023-05-21T11:59:59.096Z,25.21
2023-05-21T12:02:33.197Z,24.93
2023-05-21T12:05:00.473Z,24.98
2023-05-21T12:07:30.244Z,25.68
2023-05-21T12:09:57.751Z,26.41
2023-05-21T12:12:26.328Z,26.76
2023-05-21T12:14:54.884Z,25.95
2023-05-21T12:17:23.097Z,26.48
2023-05-21T12:19:56.518Z,26.39
2023-05-21T12:22:24.468Z,26.37
2023-05-21T12:24:51.536Z,26.83
2023-05-21T12:27:18.328Z,26.84
2023-05-21T12:29:46.176Z,26.59
2023-05-21T12:32:14.555Z,27.05
2023-05-21T12:34:46.958Z,26.85
2023-05-21T12:37:27.457Z,26.72
2023-05-21T12:39:55.786Z,26.86
2023-05-21T12:42:35.793Z,26.96
2023-05-21T12:45:07.322Z,27.44
2023-05-21T12:47:34.194Z,26.99
2023-05-21T12:50:02.083Z,27.09
2023-05-21T12:52:29.375Z,27.39
2023-05-21T12:54:57.087Z,26.73
2023-05-21T12:57:34.661Z,25.76
2023-05-21T13:00:01.872Z,25.60
2023-05-21T13:02:38.399Z,25.69
2023-05-21T13:05:09.808Z,26.13
2023-05-21T13:07:38.449Z,26.25
2023-05-21T13:10:07.087Z,26.42
2023-05-21T13:12:34.116Z,25.85
2023-05-21T13:15:02.005Z,26.00
2023-05-21T13:17:29.090Z,25.72
2023-05-21T13:20:07.296Z,26.59
2023-05-21T13:22:33.742Z,27.09
2023-05-21T13:25:00.188Z,26.96
2023-05-21T13:27:26.607Z,27.06
2023-05-21T13:29:53.068Z,27.17
2023-05-21T13:32:19.569Z,27.23
2023-05-21T13:34:46.343Z,27.02
2023-05-21T13:37:12.753Z,26.19
2023-05-21T13:39:39.313Z,26.27
2023-05-21T13:42:06.173Z,26.43
2023-05-21T13:44:36.063Z,25.99
2023-05-21T13:47:03.815Z,25.43
2023-05-21T13:49:30.434Z,25.04
2023-05-21T13:51:58.075Z,25.25
2023-05-21T13:54:24.623Z,24.72
2023-05-21T13:56:51.090Z,24.57
2023-05-21T13:59:17.560Z,24.72
2023-05-21T14:01:47.958Z,24.57
2023-05-21T14:04:14.403Z,24.27
2023-05-21T14:06:41.168Z,24.88
2023-05-21T14:09:07.999Z,25.04
2023-05-21T14:11:35.064Z,25.21
2023-05-21T14:14:02.880Z,25.16
2023-05-21T14:16:29.465Z,25.23
2023-05-21T14:18:57.162Z,24.99
2023-05-21T14:21:25.038Z,25.29
2023-05-21T14:23:52.193Z,25.48
2023-05-21T14:26:19.120Z,25.02
2023-05-21T14:28:46.249Z,24.89
2023-05-21T14:31:12.824Z,25.02
2023-05-21T14:33:39.315Z,25.03
2023-05-21T14:36:06.014Z,25.11
2023-05-21T14:38:32.552Z,24.87
2023-05-21T14:40:59.014Z,24.72
2023-05-21T14:43:25.523Z,24.29
2023-05-21T14:45:52.176Z,24.39
2023-05-21T14:48:22.646Z,24.11
2023-05-21T14:50:50.196Z,24.03
2023-05-21T14:53:17.160Z,24.15
2023-05-21T14:55:43.645Z,23.97
2023-05-21T14:58:10.258Z,24.22
2023-05-21T15:00:37.783Z,24.25
2023-05-21T15:03:05.188Z,24.21
2023-05-21T15:05:32.100Z,24.01
2023-05-21T15:07:58.549Z,23.96
2023-05-21T15:10:28.332Z,23.63
2023-05-21T15:12:54.775Z,23.37
2023-05-21T15:15:21.700Z,23.13
2023-05-21T15:17:49.292Z,22.93
2023-05-21T15:20:16.556Z,23.14
2023-05-21T15:22:43.118Z,23.01
2023-05-21T15:25:11.135Z,22.98
2023-05-21T15:27:37.573Z,23.10
2023-05-21T15:30:04.654Z,23.12
2023-05-21T15:32:31.593Z,23.16
2023-05-21T15:35:00.686Z,23.32
2023-05-21T15:37:27.566Z,23.27
2023-05-21T15:39:54.036Z,23.05
2023-05-21T15:42:20.465Z,22.75
2023-05-21T15:44:47.261Z,22.42
2023-05-21T15:47:13.706Z,21.88
2023-05-21T15:49:40.214Z,21.57
2023-05-21T15:52:06.974Z,21.89
2023-05-21T15:54:33.405Z,21.79
2023-05-21T15:56:59.833Z,21.53
2023-05-21T15:59:27.404Z,21.52
2023-05-21T16:01:55.612Z,21.56
2023-05-21T16:04:22.172Z,21.67
2023-05-21T16:06:48.712Z,21.34
2023-05-21T16:09:15.446Z,21.24
2023-05-21T16:11:44.639Z,21.19
2023-05-21T16:14:11.873Z,21.22
2023-05-21T16:16:38.887Z,21.01
2023-05-21T16:19:05.725Z,20.83
2023-05-21T16:21:32.935Z,20.83
2023-05-21T16:23:59.873Z,20.77
2023-05-21T16:26:26.320Z,20.87
2023-05-21T16:28:53.645Z,20.64
2023-05-21T16:31:20.436Z,20.49
2023-05-21T16:33:46.892Z,20.57
2023-05-21T16:36:13.359Z,20.55
2023-05-21T16:38:39.832Z,20.59
2023-05-21T16:41:07.025Z,20.63
2023-05-21T16:43:33.496Z,20.61
2023-05-21T16:45:59.980Z,20.54
2023-05-21T16:48:26.541Z,20.41
2023-05-21T16:50:53.015Z,20.32
2023-05-21T16:53:19.501Z,20.40
2023-05-21T16:55:45.929Z,20.40
2023-05-21T16:58:13.557Z,19.99
2023-05-21T17:00:39.997Z,19.97
2023-05-21T17:03:06.736Z,20.00
2023-05-21T17:05:33.371Z,19.89
2023-05-21T17:07:59.836Z,19.83
2023-05-21T17:10:26.336Z,19.69
2023-05-21T17:12:52.802Z,19.66
2023-05-21T17:15:19.230Z,19.69
2023-05-21T17:17:45.751Z,19.63
2023-05-21T17:20:12.727Z,19.65
2023-05-21T17:22:39.276Z,19.76
2023-05-21T17:25:06.434Z,19.57
2023-05-21T17:27:32.936Z,19.38
2023-05-21T17:29:59.482Z,19.33
2023-05-21T17:32:25.939Z,19.33
2023-05-21T17:34:53.040Z,19.41
2023-05-21T17:37:19.538Z,19.30
2023-05-21T17:39:45.969Z,19.33
2023-05-21T17:42:12.401Z,19.48
2023-05-21T17:44:38.827Z,19.45
2023-05-21T17:47:06.629Z,19.45
2023-05-21T17:49:33.233Z,19.27
2023-05-21T17:52:00.634Z,19.22
2023-05-21T17:54:27.428Z,19.13
2023-05-21T17:56:53.908Z,18.93
2023-05-21T17:59:21.365Z,18.91
2023-05-21T18:01:47.879Z,18.92
2023-05-21T18:04:14.403Z,18.94
2023-05-21T18:06:40.943Z,18.75
2023-05-21T18:09:07.912Z,18.77
2023-05-21T18:11:34.722Z,18.77
2023-05-21T18:14:01.379Z,18.89
2023-05-21T18:16:30.188Z,18.91
2023-05-21T18:18:57.220Z,18.88
2023-05-21T18:21:23.793Z,18.80
2023-05-21T18:23:50.216Z,18.83
2023-05-21T18:26:16.660Z,18.80
2023-05-21T18:28:43.156Z,18.83
2023-05-21T18:31:09.582Z,18.82
2023-05-21T18:33:36.271Z,18.63
2023-05-21T18:36:02.722Z,18.50
2023-05-21T18:38:29.147Z,18.56
2023-05-21T18:40:55.573Z,18.50
2023-05-21T18:43:22.085Z,18.54
2023-05-21T18:45:48.551Z,18.46
2023-05-21T18:48:15.014Z,18.39
2023-05-21T18:50:41.532Z,18.32
2023-05-21T18:53:08.000Z,18.30
2023-05-21T18:55:34.612Z,18.16
2023-05-21T18:58:01.208Z,18.21
2023-05-21T19:00:27.830Z,18.17
2023-05-21T19:02:55.441Z,18.13
2023-05-21T19:05:22.212Z,18.15
2023-05-21T19:07:49.585Z,18.15
2023-05-21T19:10:16.053Z,18.14
2023-05-21T19:12:43.432Z,18.02
2023-05-21T19:15:10.514Z,17.99
2023-05-21T19:17:39.009Z,17.98
2023-05-21T19:20:10.035Z,17.92
2023-05-21T19:22:37.214Z,18.02
2023-05-21T19:25:04.154Z,17.92
2023-05-21T19:27:30.617Z,17.82
2023-05-21T19:29:57.159Z,17.80
2023-05-21T19:32:23.751Z,17.83
2023-05-21T19:34:51.505Z,17.62
2023-05-21T19:37:18.120Z,17.60
2023-05-21T19:39:49.398Z,17.59
2023-05-21T19:42:17.330Z,17.57
2023-05-21T19:44:43.908Z,17.50
2023-05-21T19:47:10.618Z,17.40
2023-05-21T19:49:37.111Z,17.38
2023-05-21T19:52:04.534Z,17.32
2023-05-21T19:54:31.153Z,17.28
2023-05-21T19:56:57.744Z,17.29
2023-05-21T19:59:24.728Z,17.21
2023-05-21T20:01:51.758Z,17.23
2023-05-21T20:04:18.391Z,17.23
2023-05-21T20:06:44.945Z,17.23
2023-05-21T20:09:13.216Z,17.09
2023-05-21T20:11:42.130Z,17.09
2023-05-21T20:14:08.811Z,17.09
2023-05-21T20:16:35.380Z,17.02
2023-05-21T20:19:02.209Z,17.01
2023-05-21T20:21:30.186Z,17.09
2023-05-21T20:23:56.684Z,16.99
2023-05-21T20:26:23.171Z,16.99
2023-05-21T20:28:49.638Z,16.95
2023-05-21T20:31:16.201Z,17.05
2023-05-21T20:33:43.033Z,16.97
2023-05-21T20:36:09.565Z,16.83
2023-05-21T20:38:37.972Z,16.86
2023-05-21T20:41:04.886Z,16.90
2023-05-21T20:43:31.334Z,16.75
2023-05-21T20:46:01.600Z,16.66
2023-05-21T20:48:29.309Z,16.66
2023-05-21T20:50:57.456Z,16.61
2023-05-21T20:53:24.747Z,16.61
2023-05-21T20:55:52.662Z,16.63
2023-05-21T20:58:19.110Z,16.59
2023-05-21T21:00:48.349Z,16.58
2023-05-21T21:03:17.874Z,16.57
2023-05-21T21:05:44.812Z,16.57
2023-05-21T21:08:12.331Z,16.64
2023-05-21T21:10:41.243Z,16.72
2023-05-21T21:13:08.440Z,16.73
2023-05-21T21:15:36.930Z,16.74
2023-05-21T21:18:03.736Z,16.72
2023-05-21T21:20:30.354Z,16.61
2023-05-21T21:22:56.829Z,16.60
2023-05-21T21:25:23.322Z,16.63
2023-05-21T21:27:49.807Z,16.61
2023-05-21T21:30:16.329Z,16.68
2023-05-21T21:32:42.901Z,16.75
2023-05-21T21:35:12.866Z,16.71
2023-05-21T21:37:39.283Z,16.75
2023-05-21T21:40:06.508Z,16.67
2023-05-21T21:42:33.171Z,16.72
2023-05-21T21:44:59.592Z,16.71
2023-05-21T21:47:26.190Z,16.70
2023-05-21T21:49:52.655Z,16.63
2023-05-21T21:52:19.138Z,16.54
2023-05-21T21:54:45.688Z,16.52
2023-05-21T21:57:12.100Z,16.50
2023-05-21T21:59:39.085Z,16.52
2023-05-21T22:02:05.974Z,16.45
2023-05-21T22:04:32.533Z,16.43
2023-05-21T22:06:58.965Z,16.42
2023-05-21T22:09:25.437Z,16.44
2023-05-21T22:11:51.956Z,16.45
2023-05-21T22:14:19.362Z,16.42
2023-05-21T22:16:47.389Z,16.46
2023-05-21T22:19:15.604Z,16.40
2023-05-21T22:21:42.169Z,16.30
2023-05-21T22:24:14.977Z,16.34
2023-05-21T22:26:50.950Z,16.25
2023-05-21T22:29:17.371Z,16.30
2023-05-21T22:31:43.876Z,16.15
2023-05-21T22:34:10.369Z,16.34
2023-05-21T22:36:38.680Z,16.32
2023-05-21T22:39:05.628Z,16.24
2023-05-21T22:41:32.170Z,16.20
2023-05-21T22:43:58.620Z,16.11
2023-05-21T22:46:25.059Z,16.12
2023-05-21T22:48:51.632Z,16.06
2023-05-21T22:51:18.113Z,16.11
2023-05-21T22:53:45.561Z,16.02
2023-05-21T22:56:11.992Z,15.80
2023-05-21T22:58:38.493Z,15.86
2023-05-21T23:01:05.015Z,15.71
2023-05-21T23:03:31.439Z,15.70
2023-05-21T23:05:57.870Z,15.68
2023-05-21T23:08:24.329Z,15.59
2023-05-21T23:10:50.815Z,15.58
2023-05-21T23:13:17.262Z,15.47
2023-05-21T23:15:44.140Z,15.41
2023-05-21T23:18:11.328Z,15.31
2023-05-21T23:20:40.781Z,15.35
2023-05-21T23:23:07.787Z,15.38
2023-05-21T23:25:34.794Z,15.31
2023-05-21T23:28:01.965Z,15.23
2023-05-21T23:30:28.536Z,15.30
2023-05-21T23:32:55.004Z,15.34
2023-05-21T23:35:21.473Z,15.33
2023-05-21T23:37:48.072Z,15.29
2023-05-21T23:40:14.694Z,15.28
2023-05-21T23:42:41.264Z,15.19
2023-05-21T23:45:07.947Z,15.18
2023-05-21T23:47:34.353Z,15.15
2023-05-21T23:50:00.776Z,15.20
2023-05-21T23:52:27.248Z,15.06
2023-05-21T23:54:54.123Z,15.12
2023-05-21T23:57:20.557Z,15.14
2023-05-21T23:59:47.036Z,15.02
